地図

経路データ

SID SEASON NUMBER BASIN SUBBASIN NAME ISO_TIME NATURE LAT LON WMO_WIND WMO_PRES WMO_AGENCY TRACK_TYPE DIST2LAND LANDFALL IFLAG USA_AGENCY USA_ATCF_ID USA_LAT USA_LON USA_RECORD USA_STATUS USA_WIND USA_PRES USA_SSHS USA_R34_NE USA_R34_SE USA_R34_SW USA_R34_NW USA_R50_NE USA_R50_SE USA_R50_SW USA_R50_NW USA_R64_NE USA_R64_SE USA_R64_SW USA_R64_NW USA_POCI USA_ROCI USA_RMW USA_EYE TOKYO_LAT TOKYO_LON TOKYO_GRADE TOKYO_WIND TOKYO_PRES TOKYO_R50_DIR TOKYO_R50_LONG TOKYO_R50_SHORT TOKYO_R30_DIR TOKYO_R30_LONG TOKYO_R30_SHORT TOKYO_LAND CMA_LAT CMA_LON CMA_CAT CMA_WIND CMA_PRES HKO_LAT HKO_LON HKO_CAT HKO_WIND HKO_PRES NEWDELHI_LAT NEWDELHI_LON NEWDELHI_GRADE NEWDELHI_WIND NEWDELHI_PRES NEWDELHI_CI NEWDELHI_DP NEWDELHI_POCI REUNION_LAT REUNION_LON REUNION_TYPE REUNION_WIND REUNION_PRES REUNION_TNUM REUNION_CI REUNION_RMW REUNION_R34_NE REUNION_R34_SE REUNION_R34_SW REUNION_R34_NW REUNION_R50_NE REUNION_R50_SE REUNION_R50_SW REUNION_R50_NW REUNION_R64_NE REUNION_R64_SE REUNION_R64_SW REUNION_R64_NW BOM_LAT BOM_LON BOM_TYPE BOM_WIND BOM_PRES BOM_TNUM BOM_CI BOM_RMW BOM_R34_NE BOM_R34_SE BOM_R34_SW BOM_R34_NW BOM_R50_NE BOM_R50_SE BOM_R50_SW BOM_R50_NW BOM_R64_NE BOM_R64_SE BOM_R64_SW BOM_R64_NW BOM_ROCI BOM_POCI BOM_EYE BOM_POS_METHOD BOM_PRES_METHOD NADI_LAT NADI_LON NADI_CAT NADI_WIND NADI_PRES WELLINGTON_LAT WELLINGTON_LON WELLINGTON_WIND WELLINGTON_PRES DS824_LAT DS824_LON DS824_STAGE DS824_WIND DS824_PRES TD9636_LAT TD9636_LON TD9636_STAGE TD9636_WIND TD9636_PRES TD9635_LAT TD9635_LON TD9635_WIND TD9635_PRES TD9635_ROCI NEUMANN_LAT NEUMANN_LON NEUMANN_CLASS NEUMANN_WIND NEUMANN_PRES MLC_LAT MLC_LON MLC_CLASS MLC_WIND MLC_PRES USA_GUST BOM_GUST BOM_GUST_PER REUNION_GUST REUNION_GUST_PER USA_SEAHGT USA_SEARAD_NE USA_SEARAD_SE USA_SEARAD_SW USA_SEARAD_NW STORM_SPEED STORM_DIR
1911169N21088 1911 39 NI BB NOT_NAMED 1911-06-18 00:00:00 TS 21.0000 88.0000 main 70 59 _________O____ -1 21.0000 88.0000 TC 30 2 319
1911169N21088 1911 39 NI BB NOT_NAMED 1911-06-18 03:00:00 TS 21.0600 87.9417 main 63 55 _________PO___ -1 21.0900 87.9125 TC 30 21.0000 88.0000 1 2 317
1911169N21088 1911 39 NI BB NOT_NAMED 1911-06-18 06:00:00 TS 21.1700 87.8288 main 55 44 _________OP___ -1 21.2000 87.8000 TC 30 21.1251 87.8721 1 3 316
1911169N21088 1911 39 NI BB NOT_NAMED 1911-06-18 09:00:00 TS 21.3029 87.6908 main 44 30 _________PP___ -1 21.3425 87.6500 TC 30 21.2501 87.7452 1 4 317
1911169N21088 1911 39 NI BB NOT_NAMED 1911-06-18 12:00:00 TS 21.4375 87.5604 main 30 10 _________OP___ -1 21.5000 87.5000 TC 30 21.3751 87.6208 1 4 321
1911169N21088 1911 39 NI BB NOT_NAMED 1911-06-18 15:00:00 TS 21.5787 87.4500 main 0 0 _________PO___ -1 21.6575 87.4000 TC 30 21.5000 87.5000 1 3 324
1911169N21088 1911 39 NI BB NOT_NAMED 1911-06-18 18:00:00 TS 21.7125 87.3415 main 0 0 _________OP___ -1 21.8000 87.3000 TC 30 21.6249 87.3830 1 3 318
1911169N21088 1911 39 NI BB NOT_NAMED 1911-06-18 21:00:00 TS 21.8249 87.2111 main 0 0 _________PP___ -1 21.9000 87.1575 TC 30 21.7499 87.2648 1 3 312
1911169N21088 1911 39 NI BB NOT_NAMED 1911-06-19 00:00:00 TS 21.9375 87.0696 main 0 0 _________OP___ -1 22.0000 87.0000 TC 30 21.8749 87.1392 1 4 314
1911169N21088 1911 39 NI BB NOT_NAMED 1911-06-19 03:00:00 TS 22.0750 86.9287 main 0 0 _________PO___ -1 22.1500 86.8575 TC 30 22.0000 87.0000 1 4 315
1911169N21088 1911 39 NI BB NOT_NAMED 1911-06-19 06:00:00 TS 22.2125 86.7717 main 0 0 _________OP___ -1 22.3000 86.7000 TC 30 22.1250 86.8434 1 4 309
1911169N21088 1911 39 NI BB NOT_NAMED 1911-06-19 09:00:00 TS 22.3250 86.5937 main 0 0 _________PP___ -1 22.4000 86.5149 TC 30 22.2500 86.6724 1 4 303
1911169N21088 1911 39 NI BB NOT_NAMED 1911-06-19 12:00:00 TS 22.4375 86.3951 main 0 0 _________OP___ -1 22.5000 86.3000 TC 30 22.3750 86.4902 1 5 303
1911169N21088 1911 39 NI BB NOT_NAMED 1911-06-19 15:00:00 TS 22.5750 86.1713 main 0 0 _________PO___ -1 22.6501 86.0426 TC 30 22.5000 86.3000 1 5 304
1911169N21088 1911 39 NI BB NOT_NAMED 1911-06-19 18:00:00 TS 22.7227 85.9375 main 0 0 _________OP___ -1 22.8000 85.8000 TC 30 22.6455 86.0749 1 5 305
1911169N21088 1911 39 NI BB NOT_NAMED 1911-06-19 21:00:00 TS 22.8551 85.7301 main 0 0 _________PP___ -1 22.9225 85.6125 TC 30 22.7877 85.8478 1 4 305
1911169N21088 1911 39 NI BB NOT_NAMED 1911-06-20 00:00:00 TS 22.9556 85.5734 main 0 0 _________OP___ -1 23.0000 85.5000 TC 30 22.9111 85.6468 1 3 304
1911169N21088 1911 39 NI BB NOT_NAMED 1911-06-20 03:00:00 TS 23.0075 85.4887 main 0 0 _________PO___ -1 23.0150 85.4775 TC 30 23.0000 85.5000 1 1 304
1911169N21088 1911 39 NI BB NOT_NAMED 1911-06-20 06:00:00 TS 23.0179 85.4711 main 0 0 _________OP___ -1 23.0000 85.5000 TC 30 23.0358 85.4423 1 0 0
1911169N21088 1911 39 NI BB NOT_NAMED 1911-06-20 09:00:00 TS 23.0187 85.4699 main 0 0 _________PP___ -1 23.0000 85.5000 TC 30 23.0373 85.4398 1 0 0
1911169N21088 1911 39 NI BB NOT_NAMED 1911-06-20 12:00:00 TS 23.0101 85.4837 main 0 0 _________OP___ -1 23.0000 85.5000 TC 30 23.0202 85.4674 1 0 0
1911169N21088 1911 39 NI BB NOT_NAMED 1911-06-20 15:00:00 TS 23.0000 85.5000 main 0 0 _________PO___ -1 23.0000 85.5000 TC 30 23.0000 85.5000 1 0 128
1911169N21088 1911 39 NI BB NOT_NAMED 1911-06-20 18:00:00 TS 22.9857 85.5141 main 0 0 _________OP___ -1 23.0000 85.5000 TC 30 22.9715 85.5283 1 1 132
1911169N21088 1911 39 NI BB NOT_NAMED 1911-06-20 21:00:00 TS 22.9624 85.5373 main 0 0 _________PP___ -1 22.9775 85.5224 TC 30 22.9474 85.5522 1 0 0
1911169N21088 1911 39 NI BB NOT_NAMED 1911-06-21 00:00:00 TS 22.9748 85.5250 main 0 0 _________OP___ -1 23.0000 85.5000 TC 30 22.9496 85.5500 1 1 318
1911169N21088 1911 39 NI BB NOT_NAMED 1911-06-21 03:00:00 TS 23.0600 85.4400 main 0 0 _________PO___ -1 23.1200 85.3800 TC 30 23.0000 85.5000 1 4 314
1911169N21088 1911 39 NI BB NOT_NAMED 1911-06-21 06:00:00 TS 23.2206 85.2495 main 0 0 _________OP___ -1 23.3000 85.2000 TC 30 23.1412 85.2990 1 5 312
1911169N21088 1911 39 NI BB NOT_NAMED 1911-06-21 09:00:00 TS 23.4139 85.0083 main 0 0 _________PP___ -1 23.5001 84.9552 TC 30 23.3277 85.0613 1 5 316
1911169N21088 1911 39 NI BB NOT_NAMED 1911-06-21 12:00:00 TS 23.6127 84.8339 main 0 0 _________OP___ -1 23.7000 84.8000 TC 30 23.5253 84.8678 1 4 336
1911169N21088 1911 39 NI BB NOT_NAMED 1911-06-21 15:00:00 TS 23.7899 84.8261 main 0 0 _________PO___ -1 23.8798 84.8523 TC 30 23.7000 84.8000 1 3 27
1911169N21088 1911 39 NI BB NOT_NAMED 1911-06-21 18:00:00 TS 23.9005 84.9958 main 0 0 _________OP___ -1 24.0000 85.1000 TC 30 23.8258 84.9177 1 5 70
1911169N21088 1911 39 NI BB NOT_NAMED 1911-06-21 21:00:00 TS 23.9564 85.3180 main 0 0 _________PP___ -1 24.0280 85.5077 TC 30 23.9087 85.1916 1 7 84
1911169N21088 1911 39 NI BB NOT_NAMED 1911-06-22 00:00:00 TS 23.9747 85.7131 main 0 0 _________OP___ -1 24.0000 86.0000 TC 30 23.9621 85.5697 1 6 86
1911169N21088 1911 39 NI BB NOT_NAMED 1911-06-22 03:00:00 NR 24.0000 86.0000 main 0 __________O___ -1 TC 24.0000 86.0000 1 5 84

IBTrACS Databaseについて

本データベースは、米国NOAAが公開する1842年以降の世界の熱帯低気圧のベストトラックデータアーカイブInternational Best Track Archive for Climate Stewardship (IBTrACS)を、ウェブで閲覧しやすい形式に変換したものです。

最終更新日:2021-10-21